Larache, Morocco
Current Conditions -  °F | °C
As of 1:00 PM on Friday 31 Oct 2014 (Local Time) from GMTT Reporting Station
Few Clouds Few Clouds  
Wind Chill: 77°   Ceiling: Unl
Heat Index: 79°   Visibility: 6mi
Dew Point: 55°   Wind: 26mph
Humidity: 47%   Direction: 100°E
Pressure: 30.09"   Gusts: NA
Location:  35.2°N, 6.16°W
Report Text: GMTT 311200Z 10023KT 9999 FEW016 25/13 Q1019 TEMPO 09022G40KT
Loading
Personal Weather Stations






























Interactive Weather Map
Tropical Storm Tracking
New forecast layout! Learn more

10-Day Weather Forecast

Advertisements
Track Severe Weather on mobile